Weather reports worldwide

Advertisment
Langdon Bay, United Kingdom (3796): temperature & dewpoint: 14.02.2020 16:00:00 - 20.02.2020 16:00:00 (GMT)Langdon Bay, United Kingdom (3796): wind speed & gusts: 14.02.2020 16:00:00 - 20.02.2020 16:00:00 (GMT)Langdon Bay, United Kingdom (3796): wind direction: 14.02.2020 16:00:00 - 20.02.2020 16:00:00 (GMT)Langdon Bay, United Kingdom (3796): reduced air pressure: 14.02.2020 16:00:00 - 20.02.2020 16:00:00 (GMT)
Date & Time tt [°C] td [°C] ff [km/h] ff [kn] fx [km/h] fx [kn] dd ppp [hPa]
20.02.2020 16:00:00 6,7 5,5 31 17 78 42 WNW 1009,1
20.02.2020 15:00:00 8,6 8,3 41 22 70 38 SW 1006,8
20.02.2020 14:00:00 8,2 7,9 41 22 78 42 SW 1007,2
20.02.2020 13:00:00 8,7 6,9 42 23 83 45 SSW 1007,8
20.02.2020 12:00:00 8,9 6,9 35 19 68 37 SSW 1009,1
20.02.2020 11:00:00 9,1 7,0 42 23 76 41 SSW 1009,9
20.02.2020 10:00:00 8,4 7,0 41 22 74 40 SSW 1010,7
20.02.2020 09:00:00 8,4 7,1 39 21 68 37 SSW 1011,3
20.02.2020 08:00:00 8,2 6,9 28 15 61 33 SW 1012,0
20.02.2020 07:00:00 8,2 7,1 29 16 59 32 SW 1011,9
20.02.2020 06:00:00 8,2 7,0 29 16 57 31 SW 1012,1
20.02.2020 05:00:00 8,2 7,0 28 15 54 29 SW 1012,8
20.02.2020 04:00:00 8,0 7,4 26 14 55 30 SW 1013,0
20.02.2020 03:00:00 8,1 7,2 29 16 63 34 SW 1013,7
20.02.2020 02:00:00 8,0 7,4 28 15 48 26 SW 1014,4
20.02.2020 01:00:00 8,1 7,4 26 14 57 31 SW 1015,2
20.02.2020 00:00:00 7,9 7,5 29 16 46 25 SW 1015,6
19.02.2020 23:00:00 8,3 7,2 29 16 52 28 SW 1016,3
19.02.2020 22:00:00 8,1 7,2 35 19 59 32 SW 1016,5
19.02.2020 21:00:00 8,1 7,0 31 17 55 30 SW 1017,1
19.02.2020 20:00:00 8,2 7,8 28 15 - - SW 1017,5
19.02.2020 19:00:00 8,0 7,8 24 13 - - SW 1018,2
19.02.2020 18:00:00 7,6 7,4 22 12 48 26 SW 1018,9
19.02.2020 17:00:00 7,2 6,7 22 12 - - SSW 1019,7
19.02.2020 16:00:00 6,5 5,7 15 8 - - SW 1020,5
19.02.2020 15:00:00 6,1 4,5 15 8 - - SW 1021,3
19.02.2020 14:00:00 6,9 2,6 28 15 - - WSW 1021,7
19.02.2020 13:00:00 7,6 1,7 28 15 46 25 WSW 1022,0
19.02.2020 12:00:00 8,4 1,1 24 13 - - WSW 1022,0
19.02.2020 11:00:00 7,4 1,8 21 11 - - W 1022,2
19.02.2020 10:00:00 5,5 1,7 21 11 - - W 1022,2
19.02.2020 09:00:00 4,1 0,7 22 12 - - W 1022,0
19.02.2020 08:00:00 2,5 0,2 18 10 - - W 1021,8
19.02.2020 07:00:00 2,2 0,2 21 11 - - W 1021,1
19.02.2020 06:00:00 1,9 0,4 18 10 - - W 1020,1
19.02.2020 05:00:00 2,4 0,5 15 8 - - W 1019,5
19.02.2020 04:00:00 2,9 0,6 16 9 - - W 1018,9
19.02.2020 03:00:00 3,3 1,2 16 9 - - W 1017,8
19.02.2020 02:00:00 3,8 2,1 18 10 - - W 1017,2
19.02.2020 01:00:00 4,0 2,6 16 9 - - W 1016,2
19.02.2020 00:00:00 3,9 2,8 18 10 46 25 W 1015,6
18.02.2020 23:00:00 5,5 3,7 26 14 - - W 1015,1
18.02.2020 22:00:00 6,0 4,0 28 15 63 34 W 1015,0
18.02.2020 21:00:00 6,6 5,5 29 16 59 32 WSW 1014,7
18.02.2020 20:00:00 7,0 5,7 37 20 67 36 WSW 1015,3
18.02.2020 19:00:00 7,5 6,1 46 25 65 35 SW 1016,2
18.02.2020 18:00:00 7,4 6,3 41 22 68 37 WSW 1017,2
18.02.2020 17:00:00 7,3 6,1 39 21 70 38 SW 1018,2
18.02.2020 16:00:00 8,2 5,4 39 21 65 35 SW 1018,5
18.02.2020 15:00:00 8,5 5,3 37 20 61 33 SW 1019,2
18.02.2020 14:00:00 8,8 5,3 35 19 57 31 SW 1019,7
18.02.2020 13:00:00 9,9 4,9 28 15 54 29 SW 1020,6
18.02.2020 12:00:00 8,4 2,8 29 16 52 28 WSW 1021,4
18.02.2020 11:00:00 8,4 3,4 26 14 46 25 WSW 1021,3
18.02.2020 10:00:00 7,8 3,5 28 15 46 25 WSW 1021,7
18.02.2020 09:00:00 6,6 3,0 26 14 - - WSW 1021,6
18.02.2020 08:00:00 5,2 2,3 26 14 - - WSW 1021,4
18.02.2020 07:00:00 4,7 1,9 24 13 - - WSW 1020,8
18.02.2020 06:00:00 4,6 1,7 22 12 - - WSW 1020,8
18.02.2020 05:00:00 4,4 1,6 21 11 - - WSW 1020,6
18.02.2020 04:00:00 4,6 1,7 24 13 46 25 WSW 1020,3
18.02.2020 03:00:00 4,7 1,6 28 15 46 25 WSW 1020,1
18.02.2020 02:00:00 4,7 1,6 26 14 - - WSW 1020,0
18.02.2020 01:00:00 4,6 1,6 28 15 46 25 WSW 1019,5
18.02.2020 00:00:00 4,8 1,7 26 14 46 25 WSW 1018,7
17.02.2020 23:00:00 5,1 2,0 26 14 48 26 WSW 1017,7
17.02.2020 22:00:00 6,0 3,3 26 14 46 25 WSW 1016,8
17.02.2020 21:00:00 6,7 4,1 26 14 50 27 WSW 1015,6
17.02.2020 20:00:00 6,9 4,5 26 14 54 29 WSW 1015,2
17.02.2020 19:00:00 7,2 4,9 35 19 50 27 WSW 1014,4
17.02.2020 18:00:00 7,3 4,9 29 16 54 29 WSW 1013,4
17.02.2020 17:00:00 7,7 3,7 29 16 59 32 WSW 1012,2
17.02.2020 16:00:00 8,2 5,8 35 19 57 31 WSW 1011,1
17.02.2020 15:00:00 8,1 6,6 48 26 68 37 SW 1010,4
17.02.2020 14:00:00 8,1 6,1 48 26 68 37 SW 1009,9
17.02.2020 13:00:00 7,2 4,8 29 16 76 41 SW 1010,2
17.02.2020 12:00:00 8,9 4,6 39 21 67 36 SW 1009,6
17.02.2020 11:00:00 7,2 5,7 26 14 59 32 SW 1010,1
17.02.2020 10:00:00 5,7 2,7 35 19 81 44 WSW 1009,7
17.02.2020 09:00:00 7,6 4,5 41 22 83 45 SW 1008,8
17.02.2020 08:00:00 8,0 4,2 35 19 59 32 SW 1008,2
17.02.2020 07:00:00 8,0 5,2 28 15 54 29 SW 1008,1
17.02.2020 06:00:00 7,8 5,1 29 16 52 28 SW 1008,4
17.02.2020 05:00:00 7,7 3,8 41 22 63 34 SW 1008,8
17.02.2020 04:00:00 7,2 4,9 34 18 61 33 SW 1008,7
17.02.2020 03:00:00 7,0 3,6 37 20 61 33 WSW 1008,9
17.02.2020 02:00:00 6,7 1,4 42 23 65 35 WSW 1008,8
17.02.2020 01:00:00 6,4 1,1 44 24 67 36 WSW 1008,2
17.02.2020 00:00:00 6,6 0,5 39 21 76 41 WSW 1007,0
16.02.2020 23:00:00 6,7 3,0 44 24 85 46 WSW 1005,5
16.02.2020 22:00:00 7,5 3,9 37 20 65 35 WSW 1003,9
16.02.2020 21:00:00 7,8 4,8 46 25 68 37 WSW 1002,9
16.02.2020 20:00:00 8,2 6,5 50 27 67 36 SW 1001,7
16.02.2020 19:00:00 7,9 6,1 41 22 61 33 WSW 1001,6
16.02.2020 18:00:00 7,3 6,4 39 21 57 31 WSW 1000,1
16.02.2020 17:00:00 7,0 5,7 31 17 52 28 SW 998,8
16.02.2020 16:00:00 7,3 6,7 29 16 - - WSW 998,6
16.02.2020 15:00:00 8,0 8,0 26 14 46 25 W 995,8
16.02.2020 14:00:00 8,1 8,1 29 16 52 28 SW 994,2
16.02.2020 13:00:00 8,3 8,2 24 13 52 28 SW 994,8
16.02.2020 12:00:00 9,0 8,9 28 15 50 27 SW 995,7
16.02.2020 11:00:00 9,9 9,7 37 20 81 44 SW 996,5
16.02.2020 10:00:00 10,9 10,5 48 26 85 46 SSW 995,9
16.02.2020 09:00:00 11,0 10,3 50 27 91 49 SSW 995,8
16.02.2020 08:00:00 11,1 10,2 55 30 94 51 SSW 995,2
16.02.2020 07:00:00 11,5 10,2 55 30 104 56 SSW 995,2
16.02.2020 06:00:00 10,9 10,3 65 35 96 52 SSW 995,7
16.02.2020 05:00:00 10,8 10,1 59 32 106 57 SSW 996,4
16.02.2020 04:00:00 10,7 10,1 59 32 100 54 SSW 997,2
16.02.2020 03:00:00 10,4 9,9 57 31 91 49 SSW 998,5
16.02.2020 02:00:00 10,6 10,1 63 34 98 53 SSW 999,4
16.02.2020 01:00:00 10,8 9,8 55 30 94 51 SSW 999,9
16.02.2020 00:00:00 11,0 9,3 54 29 102 55 SSW 1000,4
15.02.2020 23:00:00 11,1 9,1 57 31 94 51 SSW 1001,0
15.02.2020 22:00:00 11,0 9,2 50 27 91 49 SSW 1002,0
15.02.2020 21:00:00 10,6 9,4 59 32 104 56 SSW 1001,7
15.02.2020 20:00:00 10,9 9,1 67 36 98 53 SSW 1002,1
15.02.2020 19:00:00 10,3 8,7 72 39 96 52 S 1003,0
15.02.2020 18:00:00 10,0 8,8 63 34 91 49 S 1003,4
15.02.2020 17:00:00 9,9 8,8 59 32 93 50 S 1004,7
15.02.2020 16:00:00 10,1 8,5 57 31 80 43 S 1006,1
15.02.2020 15:00:00 10,3 8,5 55 30 78 42 S 1006,9
15.02.2020 14:00:00 10,1 8,5 48 26 76 41 S 1008,2
15.02.2020 13:00:00 10,0 8,5 44 24 78 42 S 1009,4
15.02.2020 12:00:00 9,5 8,4 39 21 83 45 S 1010,6
15.02.2020 11:00:00 9,7 8,4 39 21 63 34 S 1011,9
15.02.2020 10:00:00 9,4 8,5 39 21 57 31 S 1013,1
15.02.2020 09:00:00 8,9 8,3 35 19 61 33 S 1013,1
15.02.2020 08:00:00 9,1 8,4 46 25 61 33 S 1014,0
15.02.2020 07:00:00 8,8 8,3 29 16 54 29 SSW 1014,4
15.02.2020 06:00:00 8,8 8,2 35 19 52 28 S 1014,9
15.02.2020 05:00:00 8,7 8,2 29 16 50 27 SSW 1015,4
15.02.2020 04:00:00 9,0 8,2 26 14 - - SSW 1015,8
15.02.2020 03:00:00 9,1 8,1 26 14 - - SSW 1016,5
15.02.2020 02:00:00 8,9 7,8 21 11 46 25 SW 1017,0
15.02.2020 01:00:00 9,0 7,5 26 14 46 25 SSW 1017,5
15.02.2020 00:00:00 8,8 7,3 28 15 46 25 S 1017,7
14.02.2020 23:00:00 9,0 7,2 21 11 52 28 SSW 1018,5
14.02.2020 22:00:00 9,2 7,0 35 19 55 30 S 1018,4
14.02.2020 21:00:00 9,2 7,4 28 15 52 28 SSW 1018,8
14.02.2020 20:00:00 8,9 7,6 22 12 - - SSW 1019,1
14.02.2020 19:00:00 8,7 7,3 22 12 - - SSW 1019,3
14.02.2020 18:00:00 8,6 7,1 31 17 54 29 SSW 1019,4
14.02.2020 17:00:00 8,5 7,3 29 16 50 27 SSW 1019,3
14.02.2020 16:00:00 8,2 7,3 24 13 48 26 SW 1019,1

tt = temperature
td = dewpoint
ff = wind speed
fx = gusts
dd = wind direction
ppp = reduced air pressure

Next stations